Terminal Aerodrome Forecast
Issued by NWS Cleveland, OH

Home | Current Version | Previous Version | Graphics & Text | Print | Product List | Glossary Off
Versions: 1 2 3 4 5 6 7 8 9 10 11 12 13 14 15 16 17 18 19 20 21 22 23 24 25

000
FTUS41 KCLE 312331
TAFCLE
TAF
KCLE 312331Z 0100/0206 02004KT P6SM SCT040
     FM010200 20003KT P6SM SKC
      TEMPO 0111/0113 4SM BR
     FM011400 24006KT P6SM SCT040
     FM011700 30008KT P6SM SCT050
     FM020200 20003KT P6SM SKC=

USA.gov is the U.S. government's official web portal to all federal, state and local government web resources and services.